Terminal Aerodrome Forecast
Issued by NWS Knoxville/Tri Cities, TN

Home | Current Version | Previous Version | Text Only | Print | Product List | Glossary On
Versions: 1 2 3 4 5 6 7 8 9 10 11 12 13 14 15 16 17 18 19 20 21 22 23 24 25
000
FTUS44 KMRX 140520
TAFTYS
TAF
KTYS 140520Z 1406/1506 20005KT P6SM SCT120
     FM141400 22009KT P6SM SCT050 BKN120
     FM142000 23012KT P6SM VCTS BKN040CB
     FM150200 23010KT 3SM -SHRA VCTS BKN020CB=

USA.gov is the U.S. government's official web portal to all federal, state and local government web resources and services.